sensor_id;sensor_type;location;lat;lon;timestamp;temperature;humidity
13798;DHT22;6970;51.340;3.240;2023-03-23T00:01:07;12.50;99.90
13798;DHT22;6970;51.340;3.240;2023-03-23T00:03:36;12.50;99.90
13798;DHT22;6970;51.340;3.240;2023-03-23T00:06:03;12.50;99.90
13798;DHT22;6970;51.340;3.240;2023-03-23T00:08:35;12.50;99.90
13798;DHT22;6970;51.340;3.240;2023-03-23T00:11:14;12.50;99.90
13798;DHT22;6970;51.340;3.240;2023-03-23T00:13:42;12.60;99.90
13798;DHT22;6970;51.340;3.240;2023-03-23T00:16:09;12.60;99.90
13798;DHT22;6970;51.340;3.240;2023-03-23T00:18:48;12.60;99.90
13798;DHT22;6970;51.340;3.240;2023-03-23T00:21:21;12.50;99.90
13798;DHT22;6970;51.340;3.240;2023-03-23T00:23:51;12.60;99.90
13798;DHT22;6970;51.340;3.240;2023-03-23T00:26:17;12.60;99.90
13798;DHT22;6970;51.340;3.240;2023-03-23T00:28:44;12.60;99.90
13798;DHT22;6970;51.340;3.240;2023-03-23T00:31:12;12.60;99.90
13798;DHT22;6970;51.340;3.240;2023-03-23T00:33:39;12.60;99.90
13798;DHT22;6970;51.340;3.240;2023-03-23T00:36:11;12.60;99.90
13798;DHT22;6970;51.340;3.240;2023-03-23T00:38:38;12.60;99.90
13798;DHT22;6970;51.340;3.240;2023-03-23T00:41:05;12.60;99.90
13798;DHT22;6970;51.340;3.240;2023-03-23T00:43:32;12.60;99.90
13798;DHT22;6970;51.340;3.240;2023-03-23T00:46:02;12.70;99.90
13798;DHT22;6970;51.340;3.240;2023-03-23T00:48:33;12.60;99.90
13798;DHT22;6970;51.340;3.240;2023-03-23T00:51:02;12.60;99.90
13798;DHT22;6970;51.340;3.240;2023-03-23T00:53:32;12.60;99.90
13798;DHT22;6970;51.340;3.240;2023-03-23T00:55:58;12.60;99.90
13798;DHT22;6970;51.340;3.240;2023-03-23T00:58:25;12.60;99.90
13798;DHT22;6970;51.340;3.240;2023-03-23T01:00:51;12.60;99.90
13798;DHT22;6970;51.340;3.240;2023-03-23T01:03:17;12.60;99.90
13798;DHT22;6970;51.340;3.240;2023-03-23T01:05:45;12.60;99.90
13798;DHT22;6970;51.340;3.240;2023-03-23T01:08:13;12.60;99.90
13798;DHT22;6970;51.340;3.240;2023-03-23T01:10:40;12.60;99.90
13798;DHT22;6970;51.340;3.240;2023-03-23T01:13:07;12.60;99.90
13798;DHT22;6970;51.340;3.240;2023-03-23T01:15:33;12.60;99.90
13798;DHT22;6970;51.340;3.240;2023-03-23T01:17:59;12.60;99.90
13798;DHT22;6970;51.340;3.240;2023-03-23T01:20:25;12.50;99.90
13798;DHT22;6970;51.340;3.240;2023-03-23T01:22:58;12.50;99.90
13798;DHT22;6970;51.340;3.240;2023-03-23T01:25:31;12.50;99.90
13798;DHT22;6970;51.340;3.240;2023-03-23T01:27:58;12.50;99.90
13798;DHT22;6970;51.340;3.240;2023-03-23T01:30:24;12.60;99.90
13798;DHT22;6970;51.340;3.240;2023-03-23T01:32:51;12.60;99.90
13798;DHT22;6970;51.340;3.240;2023-03-23T01:35:17;12.60;99.90
13798;DHT22;6970;51.340;3.240;2023-03-23T01:37:43;12.60;99.90
13798;DHT22;6970;51.340;3.240;2023-03-23T01:40:10;12.60;99.90
13798;DHT22;6970;51.340;3.240;2023-03-23T01:42:38;12.60;99.90
13798;DHT22;6970;51.340;3.240;2023-03-23T01:47:50;12.60;99.90
13798;DHT22;6970;51.340;3.240;2023-03-23T01:50:19;12.60;99.90
13798;DHT22;6970;51.340;3.240;2023-03-23T01:52:49;12.60;99.90
13798;DHT22;6970;51.340;3.240;2023-03-23T01:55:17;12.60;99.90
13798;DHT22;6970;51.340;3.240;2023-03-23T01:57:43;12.60;99.90
13798;DHT22;6970;51.340;3.240;2023-03-23T02:00:10;12.60;99.90
13798;DHT22;6970;51.340;3.240;2023-03-23T02:02:42;12.60;99.90
13798;DHT22;6970;51.340;3.240;2023-03-23T02:05:13;12.60;99.90
13798;DHT22;6970;51.340;3.240;2023-03-23T02:07:40;12.60;99.90
13798;DHT22;6970;51.340;3.240;2023-03-23T02:10:06;12.60;99.90
13798;DHT22;6970;51.340;3.240;2023-03-23T02:12:33;12.60;99.90
13798;DHT22;6970;51.340;3.240;2023-03-23T02:14:59;12.60;99.90
13798;DHT22;6970;51.340;3.240;2023-03-23T02:17:43;12.60;99.90
13798;DHT22;6970;51.340;3.240;2023-03-23T02:33:58;12.50;99.90
13798;DHT22;6970;51.340;3.240;2023-03-23T02:36:39;12.50;99.90
13798;DHT22;6970;51.340;3.240;2023-03-23T02:39:47;12.50;99.90
13798;DHT22;6970;51.340;3.240;2023-03-23T02:42:22;12.50;99.90
13798;DHT22;6970;51.340;3.240;2023-03-23T02:44:51;12.50;99.90
13798;DHT22;6970;51.340;3.240;2023-03-23T02:47:21;12.50;99.90
13798;DHT22;6970;51.340;3.240;2023-03-23T02:49:50;12.40;99.90
13798;DHT22;6970;51.340;3.240;2023-03-23T02:52:24;12.40;99.90
13798;DHT22;6970;51.340;3.240;2023-03-23T02:54:51;12.40;99.90
13798;DHT22;6970;51.340;3.240;2023-03-23T02:57:20;12.40;99.90
13798;DHT22;6970;51.340;3.240;2023-03-23T02:59:46;12.40;99.90
13798;DHT22;6970;51.340;3.240;2023-03-23T03:02:17;12.40;99.90
13798;DHT22;6970;51.340;3.240;2023-03-23T03:16:12;12.40;99.90
13798;DHT22;6970;51.340;3.240;2023-03-23T03:18:43;12.40;99.90
13798;DHT22;6970;51.340;3.240;2023-03-23T03:21:12;12.40;99.90
13798;DHT22;6970;51.340;3.240;2023-03-23T03:23:42;12.40;99.90
13798;DHT22;6970;51.340;3.240;2023-03-23T03:26:11;12.40;99.90
13798;DHT22;6970;51.340;3.240;2023-03-23T03:28:38;12.40;99.90
13798;DHT22;6970;51.340;3.240;2023-03-23T03:31:05;12.40;99.90
13798;DHT22;6970;51.340;3.240;2023-03-23T03:33:32;12.40;99.90
13798;DHT22;6970;51.340;3.240;2023-03-23T03:36:02;12.40;99.90
13798;DHT22;6970;51.340;3.240;2023-03-23T03:38:28;12.40;99.90
13798;DHT22;6970;51.340;3.240;2023-03-23T03:40:55;12.30;99.90
13798;DHT22;6970;51.340;3.240;2023-03-23T03:43:21;12.40;99.90
13798;DHT22;6970;51.340;3.240;2023-03-23T03:45:47;12.30;99.90
13798;DHT22;6970;51.340;3.240;2023-03-23T03:48:13;12.30;99.90
13798;DHT22;6970;51.340;3.240;2023-03-23T03:50:39;12.30;99.90
13798;DHT22;6970;51.340;3.240;2023-03-23T03:53:06;12.30;99.90
13798;DHT22;6970;51.340;3.240;2023-03-23T03:55:32;12.20;99.90
13798;DHT22;6970;51.340;3.240;2023-03-23T03:58:04;12.20;99.90
13798;DHT22;6970;51.340;3.240;2023-03-23T04:00:30;12.20;99.90
13798;DHT22;6970;51.340;3.240;2023-03-23T04:02:56;12.20;99.90
13798;DHT22;6970;51.340;3.240;2023-03-23T04:05:26;12.20;99.90
13798;DHT22;6970;51.340;3.240;2023-03-23T04:07:54;12.20;99.90
13798;DHT22;6970;51.340;3.240;2023-03-23T04:10:29;12.20;99.90
13798;DHT22;6970;51.340;3.240;2023-03-23T04:12:56;12.20;99.90
13798;DHT22;6970;51.340;3.240;2023-03-23T04:15:22;12.20;99.90
13798;DHT22;6970;51.340;3.240;2023-03-23T04:17:48;12.20;99.90
13798;DHT22;6970;51.340;3.240;2023-03-23T04:20:16;12.20;99.90
13798;DHT22;6970;51.340;3.240;2023-03-23T04:22:49;12.10;99.90
13798;DHT22;6970;51.340;3.240;2023-03-23T04:25:19;12.10;99.90
13798;DHT22;6970;51.340;3.240;2023-03-23T04:27:49;12.10;99.90
13798;DHT22;6970;51.340;3.240;2023-03-23T04:30:23;12.10;99.90
13798;DHT22;6970;51.340;3.240;2023-03-23T04:32:50;12.10;99.90
13798;DHT22;6970;51.340;3.240;2023-03-23T04:35:19;12.10;99.90
13798;DHT22;6970;51.340;3.240;2023-03-23T04:37:46;12.10;99.90
13798;DHT22;6970;51.340;3.240;2023-03-23T04:40:12;12.00;99.90
13798;DHT22;6970;51.340;3.240;2023-03-23T04:42:41;12.00;99.90
13798;DHT22;6970;51.340;3.240;2023-03-23T04:45:11;12.00;99.90
13798;DHT22;6970;51.340;3.240;2023-03-23T04:47:39;11.90;99.90
13798;DHT22;6970;51.340;3.240;2023-03-23T04:50:11;11.90;99.90
13798;DHT22;6970;51.340;3.240;2023-03-23T04:52:41;11.90;99.90
13798;DHT22;6970;51.340;3.240;2023-03-23T04:55:11;11.90;99.90
13798;DHT22;6970;51.340;3.240;2023-03-23T04:57:38;11.90;99.90
13798;DHT22;6970;51.340;3.240;2023-03-23T05:00:06;11.90;99.90
13798;DHT22;6970;51.340;3.240;2023-03-23T05:02:38;11.90;99.90
13798;DHT22;6970;51.340;3.240;2023-03-23T05:05:09;11.90;99.90
13798;DHT22;6970;51.340;3.240;2023-03-23T05:07:40;11.80;99.90
13798;DHT22;6970;51.340;3.240;2023-03-23T05:10:06;11.80;99.90
13798;DHT22;6970;51.340;3.240;2023-03-23T05:12:33;11.80;99.90
13798;DHT22;6970;51.340;3.240;2023-03-23T05:14:59;11.80;99.90
13798;DHT22;6970;51.340;3.240;2023-03-23T05:17:26;11.70;99.90
13798;DHT22;6970;51.340;3.240;2023-03-23T05:19:52;11.70;99.90
13798;DHT22;6970;51.340;3.240;2023-03-23T05:22:19;11.70;99.90
13798;DHT22;6970;51.340;3.240;2023-03-23T05:24:47;11.60;99.90
13798;DHT22;6970;51.340;3.240;2023-03-23T05:27:13;11.60;99.90
13798;DHT22;6970;51.340;3.240;2023-03-23T05:29:40;11.60;99.90
13798;DHT22;6970;51.340;3.240;2023-03-23T05:32:09;11.60;99.90
13798;DHT22;6970;51.340;3.240;2023-03-23T05:34:36;11.60;99.90
13798;DHT22;6970;51.340;3.240;2023-03-23T05:37:03;11.60;99.90
13798;DHT22;6970;51.340;3.240;2023-03-23T05:39:31;11.60;99.90
13798;DHT22;6970;51.340;3.240;2023-03-23T05:41:58;11.60;99.90
13798;DHT22;6970;51.340;3.240;2023-03-23T05:44:24;11.50;99.90
13798;DHT22;6970;51.340;3.240;2023-03-23T05:46:50;11.50;99.90
13798;DHT22;6970;51.340;3.240;2023-03-23T05:49:16;11.50;99.90
13798;DHT22;6970;51.340;3.240;2023-03-23T05:51:46;11.50;99.90
13798;DHT22;6970;51.340;3.240;2023-03-23T05:54:12;11.50;99.90
13798;DHT22;6970;51.340;3.240;2023-03-23T05:56:39;11.50;99.90
13798;DHT22;6970;51.340;3.240;2023-03-23T05:59:05;11.50;99.90
13798;DHT22;6970;51.340;3.240;2023-03-23T06:01:31;11.50;99.90
13798;DHT22;6970;51.340;3.240;2023-03-23T06:03:58;11.40;99.90
13798;DHT22;6970;51.340;3.240;2023-03-23T06:06:25;11.40;99.90
13798;DHT22;6970;51.340;3.240;2023-03-23T06:08:51;11.40;99.90
13798;DHT22;6970;51.340;3.240;2023-03-23T06:11:18;11.40;99.90
13798;DHT22;6970;51.340;3.240;2023-03-23T06:13:44;11.40;99.90
13798;DHT22;6970;51.340;3.240;2023-03-23T06:16:10;11.40;99.90
13798;DHT22;6970;51.340;3.240;2023-03-23T06:18:36;11.40;99.90
13798;DHT22;6970;51.340;3.240;2023-03-23T06:21:06;11.40;99.90
13798;DHT22;6970;51.340;3.240;2023-03-23T06:23:32;11.40;99.90
13798;DHT22;6970;51.340;3.240;2023-03-23T06:26:00;11.40;99.90
13798;DHT22;6970;51.340;3.240;2023-03-23T06:28:27;11.30;99.90
13798;DHT22;6970;51.340;3.240;2023-03-23T06:30:53;11.30;99.90
13798;DHT22;6970;51.340;3.240;2023-03-23T06:33:19;11.30;99.90
13798;DHT22;6970;51.340;3.240;2023-03-23T06:35:45;11.30;99.90
13798;DHT22;6970;51.340;3.240;2023-03-23T06:38:11;11.20;99.90
13798;DHT22;6970;51.340;3.240;2023-03-23T06:40:38;11.20;99.90
13798;DHT22;6970;51.340;3.240;2023-03-23T06:43:04;11.20;99.90
13798;DHT22;6970;51.340;3.240;2023-03-23T06:45:32;11.20;99.90
13798;DHT22;6970;51.340;3.240;2023-03-23T06:47:58;11.10;99.90
13798;DHT22;6970;51.340;3.240;2023-03-23T06:50:24;11.10;99.90
13798;DHT22;6970;51.340;3.240;2023-03-23T06:52:51;11.10;99.90
13798;DHT22;6970;51.340;3.240;2023-03-23T06:55:17;11.10;99.90
13798;DHT22;6970;51.340;3.240;2023-03-23T06:57:44;11.10;99.90
13798;DHT22;6970;51.340;3.240;2023-03-23T07:00:11;11.10;99.90
13798;DHT22;6970;51.340;3.240;2023-03-23T07:02:42;11.10;99.90
13798;DHT22;6970;51.340;3.240;2023-03-23T07:05:10;11.10;99.90
13798;DHT22;6970;51.340;3.240;2023-03-23T07:07:38;11.20;99.90
13798;DHT22;6970;51.340;3.240;2023-03-23T07:10:05;11.20;99.90
13798;DHT22;6970;51.340;3.240;2023-03-23T07:12:32;11.30;99.90
13798;DHT22;6970;51.340;3.240;2023-03-23T07:14:59;11.40;99.90
13798;DHT22;6970;51.340;3.240;2023-03-23T07:17:25;11.50;99.90
13798;DHT22;6970;51.340;3.240;2023-03-23T07:19:51;11.60;99.90
13798;DHT22;6970;51.340;3.240;2023-03-23T07:22:16;11.80;99.90
13798;DHT22;6970;51.340;3.240;2023-03-23T07:24:42;11.90;99.90
13798;DHT22;6970;51.340;3.240;2023-03-23T07:27:08;12.20;99.90
13798;DHT22;6970;51.340;3.240;2023-03-23T07:29:34;13.10;99.90
13798;DHT22;6970;51.340;3.240;2023-03-23T07:32:04;14.40;99.90
13798;DHT22;6970;51.340;3.240;2023-03-23T07:34:31;15.70;99.90
13798;DHT22;6970;51.340;3.240;2023-03-23T07:36:58;16.80;99.90
13798;DHT22;6970;51.340;3.240;2023-03-23T07:39:24;17.50;99.90
13798;DHT22;6970;51.340;3.240;2023-03-23T07:41:51;18.50;99.90
13798;DHT22;6970;51.340;3.240;2023-03-23T07:44:17;19.20;99.90
13798;DHT22;6970;51.340;3.240;2023-03-23T07:46:43;19.70;99.90
13798;DHT22;6970;51.340;3.240;2023-03-23T07:49:09;20.30;99.90
13798;DHT22;6970;51.340;3.240;2023-03-23T07:51:36;20.90;99.90
13798;DHT22;6970;51.340;3.240;2023-03-23T07:54:04;21.20;99.70
13798;DHT22;6970;51.340;3.240;2023-03-23T07:56:36;21.10;99.20
13798;DHT22;6970;51.340;3.240;2023-03-23T07:59:03;20.30;99.30
13798;DHT22;6970;51.340;3.240;2023-03-23T08:01:30;19.40;99.90
13798;DHT22;6970;51.340;3.240;2023-03-23T08:03:56;18.90;99.90
13798;DHT22;6970;51.340;3.240;2023-03-23T08:06:24;18.30;99.90
13798;DHT22;6970;51.340;3.240;2023-03-23T08:08:50;18.30;99.90
13798;DHT22;6970;51.340;3.240;2023-03-23T08:11:17;18.40;99.90
13798;DHT22;6970;51.340;3.240;2023-03-23T08:13:44;18.60;99.90
13798;DHT22;6970;51.340;3.240;2023-03-23T08:16:10;18.40;99.90
13798;DHT22;6970;51.340;3.240;2023-03-23T08:18:37;18.60;99.90
13798;DHT22;6970;51.340;3.240;2023-03-23T08:21:04;19.50;99.90
13798;DHT22;6970;51.340;3.240;2023-03-23T08:23:31;20.20;99.90
13798;DHT22;6970;51.340;3.240;2023-03-23T08:25:59;21.30;99.10
13798;DHT22;6970;51.340;3.240;2023-03-23T08:28:25;22.10;97.40
13798;DHT22;6970;51.340;3.240;2023-03-23T08:30:51;22.40;95.70
13798;DHT22;6970;51.340;3.240;2023-03-23T08:33:18;22.60;95.50
13798;DHT22;6970;51.340;3.240;2023-03-23T08:35:44;23.10;94.60
13798;DHT22;6970;51.340;3.240;2023-03-23T08:38:11;23.50;94.10
13798;DHT22;6970;51.340;3.240;2023-03-23T08:40:37;24.00;93.20
13798;DHT22;6970;51.340;3.240;2023-03-23T08:43:04;24.00;92.70
13798;DHT22;6970;51.340;3.240;2023-03-23T08:45:30;24.20;91.90
13798;DHT22;6970;51.340;3.240;2023-03-23T08:47:55;24.10;91.80
13798;DHT22;6970;51.340;3.240;2023-03-23T08:50:25;24.40;91.60
13798;DHT22;6970;51.340;3.240;2023-03-23T08:52:52;24.20;91.00
13798;DHT22;6970;51.340;3.240;2023-03-23T08:55:19;22.60;92.20
13798;DHT22;6970;51.340;3.240;2023-03-23T08:57:45;20.90;94.50
13798;DHT22;6970;51.340;3.240;2023-03-23T09:00:15;19.90;96.50
13798;DHT22;6970;51.340;3.240;2023-03-23T09:02:46;19.70;98.00
13798;DHT22;6970;51.340;3.240;2023-03-23T09:05:14;19.80;97.40
13798;DHT22;6970;51.340;3.240;2023-03-23T09:07:43;19.40;98.00
13798;DHT22;6970;51.340;3.240;2023-03-23T09:10:10;19.00;98.50
13798;DHT22;6970;51.340;3.240;2023-03-23T09:12:36;18.60;99.10
13798;DHT22;6970;51.340;3.240;2023-03-23T09:15:06;18.30;99.80
13798;DHT22;6970;51.340;3.240;2023-03-23T09:17:45;17.90;99.90
13798;DHT22;6970;51.340;3.240;2023-03-23T09:20:13;18.50;99.90
13798;DHT22;6970;51.340;3.240;2023-03-23T09:22:41;18.90;99.40
13798;DHT22;6970;51.340;3.240;2023-03-23T09:25:10;18.80;99.50
13798;DHT22;6970;51.340;3.240;2023-03-23T09:27:37;18.50;99.90
13798;DHT22;6970;51.340;3.240;2023-03-23T09:30:06;18.30;99.90
13798;DHT22;6970;51.340;3.240;2023-03-23T09:32:34;18.10;99.90
13798;DHT22;6970;51.340;3.240;2023-03-23T09:35:04;18.70;99.90
13798;DHT22;6970;51.340;3.240;2023-03-23T09:37:33;19.50;99.50
13798;DHT22;6970;51.340;3.240;2023-03-23T09:40:02;19.70;98.20
13798;DHT22;6970;51.340;3.240;2023-03-23T09:42:36;18.80;98.70
13798;DHT22;6970;51.340;3.240;2023-03-23T09:50:42;16.70;99.90
13798;DHT22;6970;51.340;3.240;2023-03-23T09:53:22;16.50;99.90
13798;DHT22;6970;51.340;3.240;2023-03-23T09:55:49;16.40;99.90
13798;DHT22;6970;51.340;3.240;2023-03-23T09:58:26;16.10;99.90
13798;DHT22;6970;51.340;3.240;2023-03-23T10:03:45;16.50;99.90
13798;DHT22;6970;51.340;3.240;2023-03-23T10:06:16;17.40;99.90
13798;DHT22;6970;51.340;3.240;2023-03-23T10:08:50;17.80;99.90
13798;DHT22;6970;51.340;3.240;2023-03-23T10:19:47;21.00;96.70
13798;DHT22;6970;51.340;3.240;2023-03-23T10:22:18;21.60;96.60
13798;DHT22;6970;51.340;3.240;2023-03-23T10:25:04;22.20;95.90
13798;DHT22;6970;51.340;3.240;2023-03-23T10:27:47;22.60;94.70
13798;DHT22;6970;51.340;3.240;2023-03-23T10:32:55;23.40;93.20
13798;DHT22;6970;51.340;3.240;2023-03-23T10:35:50;23.50;92.60
13798;DHT22;6970;51.340;3.240;2023-03-23T10:38:45;23.00;92.90
13798;DHT22;6970;51.340;3.240;2023-03-23T10:41:17;22.80;93.30
13798;DHT22;6970;51.340;3.240;2023-03-23T10:43:45;21.80;93.40
13798;DHT22;6970;51.340;3.240;2023-03-23T10:48:46;19.60;96.80
13798;DHT22;6970;51.340;3.240;2023-03-23T10:51:18;19.00;97.70
13798;DHT22;6970;51.340;3.240;2023-03-23T10:53:51;18.60;98.60
13798;DHT22;6970;51.340;3.240;2023-03-23T10:56:26;18.20;99.30
13798;DHT22;6970;51.340;3.240;2023-03-23T10:58:53;17.60;99.40
13798;DHT22;6970;51.340;3.240;2023-03-23T11:01:32;17.10;99.90
13798;DHT22;6970;51.340;3.240;2023-03-23T11:04:00;16.70;99.90
13798;DHT22;6970;51.340;3.240;2023-03-23T11:06:32;16.60;99.90
13798;DHT22;6970;51.340;3.240;2023-03-23T11:09:15;17.00;99.90
13798;DHT22;6970;51.340;3.240;2023-03-23T11:11:49;18.10;99.90
13798;DHT22;6970;51.340;3.240;2023-03-23T11:14:18;18.50;99.90
13798;DHT22;6970;51.340;3.240;2023-03-23T11:16:58;18.40;99.90
13798;DHT22;6970;51.340;3.240;2023-03-23T11:19:36;18.30;99.90
13798;DHT22;6970;51.340;3.240;2023-03-23T11:22:13;17.90;99.90
13798;DHT22;6970;51.340;3.240;2023-03-23T11:24:45;17.60;99.90
13798;DHT22;6970;51.340;3.240;2023-03-23T11:27:13;17.10;99.90
13798;DHT22;6970;51.340;3.240;2023-03-23T11:30:09;16.80;99.90
13798;DHT22;6970;51.340;3.240;2023-03-23T11:32:36;16.50;99.90
13798;DHT22;6970;51.340;3.240;2023-03-23T11:35:06;16.30;99.90
13798;DHT22;6970;51.340;3.240;2023-03-23T11:37:40;16.10;99.90
13798;DHT22;6970;51.340;3.240;2023-03-23T11:43:13;15.80;99.90
13798;DHT22;6970;51.340;3.240;2023-03-23T11:45:46;15.70;99.90
13798;DHT22;6970;51.340;3.240;2023-03-23T11:56:46;17.30;99.90
13798;DHT22;6970;51.340;3.240;2023-03-23T11:59:25;17.00;99.90
13798;DHT22;6970;51.340;3.240;2023-03-23T12:07:35;17.10;99.90
13798;DHT22;6970;51.340;3.240;2023-03-23T12:15:26;17.80;99.70
13798;DHT22;6970;51.340;3.240;2023-03-23T12:23:38;17.30;99.90
13798;DHT22;6970;51.340;3.240;2023-03-23T12:29:23;16.70;99.90
13798;DHT22;6970;51.340;3.240;2023-03-23T12:34:47;16.30;99.90
13798;DHT22;6970;51.340;3.240;2023-03-23T12:48:08;17.00;99.90
13798;DHT22;6970;51.340;3.240;2023-03-23T12:51:15;17.10;99.90
13798;DHT22;6970;51.340;3.240;2023-03-23T12:57:17;17.00;99.90
13798;DHT22;6970;51.340;3.240;2023-03-23T13:00:02;17.20;99.90
13798;DHT22;6970;51.340;3.240;2023-03-23T13:02:49;17.30;99.90
13798;DHT22;6970;51.340;3.240;2023-03-23T13:07:58;17.50;99.90
13798;DHT22;6970;51.340;3.240;2023-03-23T13:10:29;17.40;99.90
13798;DHT22;6970;51.340;3.240;2023-03-23T13:12:57;17.40;99.90
13798;DHT22;6970;51.340;3.240;2023-03-23T13:21:00;17.90;99.90
13798;DHT22;6970;51.340;3.240;2023-03-23T13:23:43;18.20;99.90
13798;DHT22;6970;51.340;3.240;2023-03-23T13:26:17;18.30;99.40
13798;DHT22;6970;51.340;3.240;2023-03-23T13:31:26;18.20;99.10
13798;DHT22;6970;51.340;3.240;2023-03-23T13:34:22;18.10;99.10
13798;DHT22;6970;51.340;3.240;2023-03-23T13:39:32;17.70;99.10
13798;DHT22;6970;51.340;3.240;2023-03-23T13:57:58;16.50;99.90
13798;DHT22;6970;51.340;3.240;2023-03-23T14:01:30;16.60;99.90
13798;DHT22;6970;51.340;3.240;2023-03-23T14:03:26;16.60;99.90
13798;DHT22;6970;51.340;3.240;2023-03-23T14:13:28;16.60;99.90
13798;DHT22;6970;51.340;3.240;2023-03-23T14:16:13;16.50;99.90
13798;DHT22;6970;51.340;3.240;2023-03-23T14:18:42;16.50;99.90
13798;DHT22;6970;51.340;3.240;2023-03-23T14:21:15;16.60;99.90
13798;DHT22;6970;51.340;3.240;2023-03-23T14:23:42;16.80;99.90
13798;DHT22;6970;51.340;3.240;2023-03-23T14:26:16;16.70;99.90
13798;DHT22;6970;51.340;3.240;2023-03-23T14:28:45;16.60;99.90
13798;DHT22;6970;51.340;3.240;2023-03-23T14:31:23;16.50;99.90
13798;DHT22;6970;51.340;3.240;2023-03-23T14:33:50;16.50;99.90
13798;DHT22;6970;51.340;3.240;2023-03-23T14:36:26;16.40;99.90
13798;DHT22;6970;51.340;3.240;2023-03-23T14:39:25;16.50;99.90
13798;DHT22;6970;51.340;3.240;2023-03-23T14:41:54;16.60;99.90
13798;DHT22;6970;51.340;3.240;2023-03-23T14:44:28;16.70;99.90
13798;DHT22;6970;51.340;3.240;2023-03-23T14:46:56;16.70;99.90
13798;DHT22;6970;51.340;3.240;2023-03-23T14:49:40;16.80;99.90
13798;DHT22;6970;51.340;3.240;2023-03-23T14:52:17;16.90;99.90
13798;DHT22;6970;51.340;3.240;2023-03-23T14:54:45;17.10;99.90
13798;DHT22;6970;51.340;3.240;2023-03-23T14:57:17;17.20;99.90
13798;DHT22;6970;51.340;3.240;2023-03-23T14:59:45;17.20;99.90
13798;DHT22;6970;51.340;3.240;2023-03-23T15:02:33;17.30;99.90
13798;DHT22;6970;51.340;3.240;2023-03-23T15:05:03;17.30;99.60
13798;DHT22;6970;51.340;3.240;2023-03-23T15:07:34;17.20;99.90
13798;DHT22;6970;51.340;3.240;2023-03-23T15:10:01;17.20;99.90
13798;DHT22;6970;51.340;3.240;2023-03-23T15:12:29;17.20;99.90
13798;DHT22;6970;51.340;3.240;2023-03-23T15:15:07;17.10;99.90
13798;DHT22;6970;51.340;3.240;2023-03-23T15:17:45;17.10;99.90
13798;DHT22;6970;51.340;3.240;2023-03-23T15:20:48;17.10;99.90
13798;DHT22;6970;51.340;3.240;2023-03-23T15:23:26;17.10;99.90
13798;DHT22;6970;51.340;3.240;2023-03-23T15:25:54;17.00;99.90
13798;DHT22;6970;51.340;3.240;2023-03-23T15:28:27;17.00;99.90
13798;DHT22;6970;51.340;3.240;2023-03-23T15:30:55;17.00;99.90
13798;DHT22;6970;51.340;3.240;2023-03-23T15:33:23;16.90;99.90
13798;DHT22;6970;51.340;3.240;2023-03-23T15:35:57;16.90;99.90
13798;DHT22;6970;51.340;3.240;2023-03-23T15:38:31;16.90;99.90
13798;DHT22;6970;51.340;3.240;2023-03-23T15:41:00;16.80;99.90
13798;DHT22;6970;51.340;3.240;2023-03-23T15:43:50;16.80;99.90
13798;DHT22;6970;51.340;3.240;2023-03-23T15:51:23;17.00;99.90
13798;DHT22;6970;51.340;3.240;2023-03-23T15:53:55;17.10;99.90
13798;DHT22;6970;51.340;3.240;2023-03-23T15:56:24;17.10;99.90
13798;DHT22;6970;51.340;3.240;2023-03-23T15:58:50;17.10;99.90
13798;DHT22;6970;51.340;3.240;2023-03-23T16:01:24;17.10;99.90
13798;DHT22;6970;51.340;3.240;2023-03-23T16:04:14;17.10;99.90
13798;DHT22;6970;51.340;3.240;2023-03-23T16:06:42;17.00;99.90
13798;DHT22;6970;51.340;3.240;2023-03-23T16:09:18;16.90;99.90
13798;DHT22;6970;51.340;3.240;2023-03-23T16:11:46;16.90;99.90
13798;DHT22;6970;51.340;3.240;2023-03-23T16:14:13;16.80;99.90
13798;DHT22;6970;51.340;3.240;2023-03-23T16:16:45;16.70;99.90
13798;DHT22;6970;51.340;3.240;2023-03-23T16:19:17;16.70;99.90
13798;DHT22;6970;51.340;3.240;2023-03-23T16:21:46;16.60;99.90
13798;DHT22;6970;51.340;3.240;2023-03-23T16:24:13;16.50;99.90
13798;DHT22;6970;51.340;3.240;2023-03-23T16:26:40;16.50;99.90
13798;DHT22;6970;51.340;3.240;2023-03-23T16:29:12;16.40;99.90
13798;DHT22;6970;51.340;3.240;2023-03-23T16:31:59;16.30;99.90
13798;DHT22;6970;51.340;3.240;2023-03-23T16:34:28;16.20;99.90
13798;DHT22;6970;51.340;3.240;2023-03-23T16:36:58;16.10;99.90
13798;DHT22;6970;51.340;3.240;2023-03-23T16:39:25;16.10;99.90
13798;DHT22;6970;51.340;3.240;2023-03-23T16:41:53;16.00;99.90
13798;DHT22;6970;51.340;3.240;2023-03-23T16:44:20;15.90;99.90
13798;DHT22;6970;51.340;3.240;2023-03-23T16:46:48;15.80;99.90
13798;DHT22;6970;51.340;3.240;2023-03-23T16:49:15;15.70;99.90
13798;DHT22;6970;51.340;3.240;2023-03-23T16:51:42;15.60;99.90
13798;DHT22;6970;51.340;3.240;2023-03-23T16:54:09;15.50;99.90
13798;DHT22;6970;51.340;3.240;2023-03-23T16:56:37;15.40;99.90
13798;DHT22;6970;51.340;3.240;2023-03-23T16:59:04;15.30;99.90
13798;DHT22;6970;51.340;3.240;2023-03-23T17:01:31;15.20;99.90
13798;DHT22;6970;51.340;3.240;2023-03-23T17:03:58;15.10;99.90
13798;DHT22;6970;51.340;3.240;2023-03-23T17:06:25;15.10;99.90
13798;DHT22;6970;51.340;3.240;2023-03-23T17:08:52;15.00;99.90
13798;DHT22;6970;51.340;3.240;2023-03-23T17:11:19;15.00;99.90
13798;DHT22;6970;51.340;3.240;2023-03-23T17:13:47;15.00;99.90
13798;DHT22;6970;51.340;3.240;2023-03-23T17:16:14;14.90;99.90
13798;DHT22;6970;51.340;3.240;2023-03-23T17:18:41;14.90;99.90
13798;DHT22;6970;51.340;3.240;2023-03-23T17:21:08;14.90;99.90
13798;DHT22;6970;51.340;3.240;2023-03-23T17:23:35;14.80;99.90
13798;DHT22;6970;51.340;3.240;2023-03-23T17:26:02;14.80;99.90
13798;DHT22;6970;51.340;3.240;2023-03-23T17:28:30;14.70;99.90
13798;DHT22;6970;51.340;3.240;2023-03-23T17:30:57;14.70;99.90
13798;DHT22;6970;51.340;3.240;2023-03-23T17:33:25;14.70;99.90
13798;DHT22;6970;51.340;3.240;2023-03-23T17:35:52;14.60;99.90
13798;DHT22;6970;51.340;3.240;2023-03-23T17:38:20;14.60;99.90
13798;DHT22;6970;51.340;3.240;2023-03-23T17:40:47;14.50;99.90
13798;DHT22;6970;51.340;3.240;2023-03-23T17:43:14;14.50;99.90
13798;DHT22;6970;51.340;3.240;2023-03-23T17:45:41;14.50;99.90
13798;DHT22;6970;51.340;3.240;2023-03-23T17:48:12;14.40;99.90
13798;DHT22;6970;51.340;3.240;2023-03-23T17:50:39;14.40;99.90
13798;DHT22;6970;51.340;3.240;2023-03-23T17:53:06;14.30;99.90
13798;DHT22;6970;51.340;3.240;2023-03-23T17:55:33;14.30;99.90
13798;DHT22;6970;51.340;3.240;2023-03-23T17:58:00;14.30;99.90
13798;DHT22;6970;51.340;3.240;2023-03-23T18:00:27;14.20;99.90
13798;DHT22;6970;51.340;3.240;2023-03-23T18:02:54;14.20;99.90
13798;DHT22;6970;51.340;3.240;2023-03-23T18:05:22;14.20;99.90
13798;DHT22;6970;51.340;3.240;2023-03-23T18:07:50;14.10;99.90
13798;DHT22;6970;51.340;3.240;2023-03-23T18:10:17;14.10;99.90
13798;DHT22;6970;51.340;3.240;2023-03-23T18:12:44;14.10;99.90
13798;DHT22;6970;51.340;3.240;2023-03-23T18:15:14;14.00;99.90
13798;DHT22;6970;51.340;3.240;2023-03-23T18:17:41;14.00;99.90
13798;DHT22;6970;51.340;3.240;2023-03-23T18:20:13;14.00;99.90
13798;DHT22;6970;51.340;3.240;2023-03-23T18:22:40;14.00;99.90